Terminal Aerodrome Forecast
Issued by NWS

Home | Current Version | Previous Version | Text Only | Print | Product List | Glossary On
Versions: 1 2 3 4 5 6 7 8 9 10 11 12 13 14 15
000
FTUS41 KBGM 041131
TAFRME
TAF
KRME 041131Z 0412/0512 VRB03KT P6SM -SHRA SCT025 OVC060
      TEMPO 0414/0417 5SM -SHRA BR OVC025
     FM041800 17005KT P6SM BKN040 PROB30 0421/0423 4SM -TSRA BR
      OVC025CB
     FM050100 VRB03KT P6SM FEW045=

USA.gov is the U.S. government's official web portal to all federal, state and local government web resources and services.